Picassent, Spain
Current Conditions -  °F | °C
As of 5:30 PM on Saturday 25 Oct 2014 (Local Time) from LEVC Reporting Station
Clear Clear  
Wind Chill: 82°   Ceiling: Unl
Heat Index: 82°   Visibility: 6mi
Dew Point: 48°   Wind: 9mph
Humidity: 30%   Direction: 140°SE
Pressure: 30.06"   Gusts: NA
Location:  39.37°N, 0.45°W
Report Text: LEVC 251530Z 14008KT 100V160 CAVOK 28/09 Q1018 NOSIG
Loading
Personal Weather Stations






























Interactive Weather Map
Tropical Storm Tracking
New forecast layout! Learn more

10-Day Weather Forecast

Advertisements
Track Severe Weather on mobile